Aeroporto :
LOGIN :

Iscrizione | Disclaimer

   EN    FR    IT 

 










Sommario :    VFR   VFR Marginale   IFR   IFR Intensivo   IFR Molto Intensivo
Visibilità : 
Base nubi : 
>= 8 km
>= 3000ft
5 / 8 km
1000 / 3000 ft
1500m / 5 km
500 / 1000 ft
800 / 1500m
200 / 500 ft
< 800m
< 200 ft
Simboli :   Temporali  Nebbia  Neve Forte  Precipitazioni Forti  Vento > 20 kt
SIGMETs :   Varie  Temporali  Ghiacco  Turbolenza  Onda orograficha  Ceneri Vulcaniche






- Altitudine del aeroporto : 240 ft
- Codice IATA : VLC


LEVC - Valencia Manises

ULTIMO METAR :
  • 020700Z 23015KT 9999 FEW030 11/04 Q1010 NOSIG

METARs OBSOLETI :
  • 020630Z 23014KT 9999 FEW030 11/03 Q1010 NOSIG
  • 020600Z 22015KT 9999 FEW030 10/03 Q1010 NOSIG
  • 020530Z 23012KT 9999 FEW030 10/03 Q1010 NOSIG
  • 020500Z 24014KT 9999 FEW030 10/03 Q1011 NOSIG
  • 020430Z 23011KT 9999 FEW030 10/02 Q1011 NOSIG
  • 012100Z 27008KT CAVOK 14/M01 Q1013 NOSIG
  • 020400Z 22013KT CAVOK 11/02 Q1011 NOSIG
  • 020330Z 23010KT CAVOK 10/02 Q1011 NOSIG
  • 020300Z 23013KT CAVOK 11/01 Q1011 NOSIG
  • 020230Z 24013KT CAVOK 12/02 Q1012 NOSIG

TAF TAF LEVC
Valido dal 02 a 06 ore il 03 a 06 ore UTC


020500Z 0206/0306 25009KT 9999 FEW040 TX20/0214Z TN08/0206Z
BECMG 0208/0211 25012KT
TEMPO 0211/0218 26015G30KT
PROB40
TEMPO 0218/0224 26015G25KT
PROB40
TEMPO 0221/0301 4000 SHRA FEW040TCU



MetMap, La meteo Aeronautica in un colpo d'occhio ! - Copyright ORBIFLY Dicembre 2007 - Disclaimer

ORBIFLY MET'MAP TEAM :

Programmazione e sviluppo : Alexandra Zaïnal
Concezione : Baudouin d'Aumeries
Supporto tecnico e logistico : Manuel Goepfert
Aiuto : Marc-Olivier Méhu
Aiuto per la traduzione : Arnaldo La Scala




FONTI E CREDITI :

   NOAA